createdAt,value
2022-08-05T00:00:17.723Z,3.40
2022-08-05T00:02:50.483Z,3.10
2022-08-05T00:06:02.496Z,2.90
2022-08-05T00:08:32.417Z,3.72
2022-08-05T00:11:00.797Z,3.15
2022-08-05T00:13:38.326Z,3.45
2022-08-05T00:16:09.244Z,3.80
2022-08-05T00:18:39.628Z,4.90
2022-08-05T00:21:08.473Z,3.95
2022-08-05T00:23:46.453Z,5.03
2022-08-05T00:26:23.148Z,4.38
2022-08-05T00:28:51.484Z,4.55
2022-08-05T00:31:54.359Z,4.47
2022-08-05T00:34:56.351Z,5.28
2022-08-05T00:37:10.727Z,5.20
2022-08-05T00:39:44.528Z,5.95
2022-08-05T00:42:37.210Z,5.35
2022-08-05T00:45:08.550Z,5.47
2022-08-05T00:47:56.728Z,5.70
2022-08-05T00:50:25.838Z,5.80
2022-08-05T00:52:55.371Z,5.90
2022-08-05T00:55:33.979Z,6.20
2022-08-05T00:58:12.827Z,5.60
2022-08-05T01:00:42.509Z,5.65
2022-08-05T01:03:22.659Z,5.82
2022-08-05T01:05:51.601Z,5.50
2022-08-05T01:08:30.768Z,5.75
2022-08-05T01:11:14.392Z,5.53
2022-08-05T01:14:01.028Z,5.40
2022-08-05T01:16:39.429Z,5.60
2022-08-05T01:19:16.395Z,5.10
2022-08-05T01:22:15.363Z,6.32
2022-08-05T01:25:04.610Z,5.80
2022-08-05T01:28:08.789Z,5.90
2022-08-05T01:30:41.021Z,6.10
2022-08-05T01:33:26.106Z,5.95
2022-08-05T01:38:30.158Z,6.38
2022-08-05T01:41:01.462Z,5.40
2022-08-05T01:43:30.540Z,5.72
2022-08-05T01:46:07.254Z,6.22
2022-08-05T01:48:49.713Z,6.25
2022-08-05T01:51:19.185Z,6.15
2022-08-05T01:53:58.126Z,6.05
2022-08-05T01:58:12.357Z,5.97
2022-08-05T01:59:21.973Z,6.68
2022-08-05T02:01:55.633Z,4.85
2022-08-05T02:04:29.933Z,5.70
2022-08-05T02:06:59.182Z,5.75
2022-08-05T02:09:28.058Z,5.90
2022-08-05T02:12:05.550Z,5.53
2022-08-05T02:14:38.684Z,5.70
2022-08-05T02:17:16.713Z,6.07
2022-08-05T02:19:49.399Z,5.97
2022-08-05T02:22:27.018Z,5.85
2022-08-05T02:25:01.930Z,6.95
2022-08-05T02:27:58.307Z,5.97
2022-08-05T02:30:22.781Z,5.97
2022-08-05T02:32:58.980Z,6.10
2022-08-05T02:35:33.406Z,6.22
2022-08-05T02:38:09.432Z,6.70
2022-08-05T02:40:38.944Z,6.10
2022-08-05T02:43:08.144Z,6.07
2022-08-05T02:45:51.990Z,6.05
2022-08-05T02:48:29.496Z,5.78
2022-08-05T02:51:00.202Z,5.35
2022-08-05T02:53:29.183Z,5.50
2022-08-05T02:56:09.386Z,5.40
2022-08-05T02:58:37.995Z,5.85
2022-08-05T03:01:15.729Z,5.50
2022-08-05T03:04:02.613Z,6.10
2022-08-05T03:06:57.024Z,5.80
2022-08-05T03:09:36.082Z,6.25
2022-08-05T03:12:06.470Z,7.03
2022-08-05T03:14:36.631Z,7.13
2022-08-05T03:17:14.147Z,7.68
2022-08-05T03:19:45.798Z,7.38
2022-08-05T03:22:19.026Z,6.38
2022-08-05T03:25:11.668Z,6.20
2022-08-05T03:27:58.983Z,6.03
2022-08-05T03:30:30.207Z,6.55
2022-08-05T03:33:02.805Z,6.55
2022-08-05T03:35:34.051Z,6.50
2022-08-05T03:38:11.454Z,8.25
2022-08-05T03:40:45.304Z,7.03
2022-08-05T03:44:08.273Z,6.63
2022-08-05T03:46:04.226Z,7.13
2022-08-05T03:48:35.165Z,7.18
2022-08-05T03:52:37.821Z,6.55
2022-08-05T03:55:54.023Z,6.85
2022-08-05T03:56:54.565Z,5.63
2022-08-05T04:02:38.245Z,3.05
2022-08-05T04:05:09.743Z,3.22
2022-08-05T04:07:57.375Z,3.30
2022-08-05T04:10:28.298Z,3.10
2022-08-05T04:13:01.308Z,2.85
2022-08-05T04:15:32.854Z,3.10
2022-08-05T04:18:06.703Z,3.08
2022-08-05T04:20:35.773Z,3.40
2022-08-05T04:23:05.101Z,3.25
2022-08-05T04:25:56.592Z,3.45
2022-08-05T04:28:21.292Z,3.67
2022-08-05T04:30:58.672Z,3.53
2022-08-05T04:34:17.010Z,3.65
2022-08-05T04:36:44.723Z,3.20
2022-08-05T04:39:07.326Z,3.20
2022-08-05T04:41:37.673Z,3.97
2022-08-05T04:44:09.392Z,3.28
2022-08-05T04:46:38.172Z,3.75
2022-08-05T04:49:12.281Z,3.15
2022-08-05T04:51:43.509Z,4.00
2022-08-05T04:54:14.518Z,3.83
2022-08-05T04:56:42.520Z,3.30
2022-08-05T04:59:21.696Z,3.67
2022-08-05T05:02:07.653Z,3.15
2022-08-05T05:04:47.614Z,3.60
2022-08-05T05:07:18.464Z,3.60
2022-08-05T05:09:53.448Z,3.75
2022-08-05T05:12:22.258Z,3.83
2022-08-05T05:14:50.770Z,3.42
2022-08-05T05:17:23.770Z,2.95
2022-08-05T05:19:55.150Z,3.95
2022-08-05T05:22:26.592Z,3.45
2022-08-05T05:24:59.815Z,3.50
2022-08-05T05:27:44.713Z,3.75
2022-08-05T05:30:30.802Z,3.00
2022-08-05T05:33:01.215Z,3.35
2022-08-05T05:35:39.746Z,3.15
2022-08-05T05:38:13.514Z,3.80
2022-08-05T05:40:49.954Z,3.50
2022-08-05T05:43:22.229Z,3.40
2022-08-05T05:46:12.167Z,2.75
2022-08-05T05:48:43.975Z,3.55
2022-08-05T05:51:15.437Z,3.35
2022-08-05T05:53:46.099Z,3.58
2022-08-05T05:56:32.432Z,2.83
2022-08-05T05:59:05.338Z,3.03
2022-08-05T06:01:37.865Z,3.23
2022-08-05T06:04:11.255Z,3.30
2022-08-05T06:06:41.650Z,3.60
2022-08-05T06:09:16.550Z,3.38
2022-08-05T06:12:01.867Z,3.20
2022-08-05T06:14:30.945Z,3.28
2022-08-05T06:16:59.351Z,3.50
2022-08-05T06:19:34.113Z,3.38
2022-08-05T06:22:03.170Z,3.35
2022-08-05T06:24:31.385Z,3.47
2022-08-05T06:27:00.608Z,3.10
2022-08-05T06:29:48.153Z,3.35
2022-08-05T06:32:24.902Z,3.40
2022-08-05T06:34:54.095Z,3.08
2022-08-05T06:37:56.973Z,3.20
2022-08-05T06:40:18.043Z,2.90
2022-08-05T06:42:52.133Z,3.70
2022-08-05T06:45:44.692Z,3.20
2022-08-05T06:48:36.987Z,2.92
2022-08-05T06:50:57.924Z,3.13
2022-08-05T06:53:27.971Z,3.10
2022-08-05T06:55:57.094Z,2.90
2022-08-05T06:58:34.899Z,3.08
2022-08-05T07:01:07.071Z,2.95
2022-08-05T07:03:35.646Z,3.00
2022-08-05T07:06:06.169Z,3.17
2022-08-05T07:08:42.869Z,3.13
2022-08-05T07:14:02.866Z,2.63
2022-08-05T07:17:59.396Z,3.00
2022-08-05T07:20:10.958Z,2.83
2022-08-05T07:22:30.224Z,2.70
2022-08-05T07:25:09.412Z,2.65
2022-08-05T07:27:59.562Z,2.67
2022-08-05T07:30:38.512Z,2.60
2022-08-05T07:33:09.597Z,2.70
2022-08-05T07:35:55.926Z,3.38
2022-08-05T07:38:33.910Z,3.10
2022-08-05T07:42:06.798Z,2.70
2022-08-05T07:43:56.231Z,2.97
2022-08-05T07:46:27.135Z,2.55
2022-08-05T07:49:03.692Z,2.47
2022-08-05T07:51:40.791Z,3.17
2022-08-05T07:54:18.726Z,2.65
2022-08-05T07:57:01.732Z,2.70
2022-08-05T07:59:40.177Z,2.50
2022-08-05T08:02:16.554Z,2.20
2022-08-05T08:04:46.980Z,2.33
2022-08-05T08:07:15.553Z,2.30
2022-08-05T08:09:43.813Z,2.63
2022-08-05T08:12:35.013Z,2.00
2022-08-05T08:15:02.538Z,2.20
2022-08-05T08:17:33.010Z,2.10
2022-08-05T08:20:43.862Z,2.30
2022-08-05T08:22:54.073Z,2.30
2022-08-05T08:25:26.710Z,1.85
2022-08-05T08:28:18.853Z,1.95
2022-08-05T08:31:00.320Z,2.03
2022-08-05T08:33:30.521Z,2.47
2022-08-05T08:36:38.897Z,2.60
2022-08-05T08:38:55.565Z,2.80
2022-08-05T08:41:52.696Z,2.35
2022-08-05T08:45:25.307Z,2.40
2022-08-05T08:47:47.487Z,2.40
2022-08-05T08:50:12.984Z,3.03
2022-08-05T08:52:51.793Z,2.60
2022-08-05T08:55:32.065Z,2.53
2022-08-05T08:58:10.627Z,2.72
2022-08-05T09:00:42.996Z,2.40
2022-08-05T09:03:14.466Z,2.33
2022-08-05T09:06:09.259Z,2.13
2022-08-05T09:08:33.652Z,2.10
2022-08-05T09:11:01.649Z,2.40
2022-08-05T09:13:31.393Z,2.25
2022-08-05T09:16:01.024Z,2.22
2022-08-05T09:18:30.600Z,1.83
2022-08-05T09:20:59.864Z,2.03
2022-08-05T09:23:37.167Z,1.83
2022-08-05T09:26:10.030Z,2.67
2022-08-05T09:28:39.752Z,1.95
2022-08-05T09:31:22.776Z,2.25
2022-08-05T09:33:59.625Z,2.20
2022-08-05T09:36:54.637Z,2.75
2022-08-05T09:39:27.715Z,1.95
2022-08-05T09:42:11.360Z,2.47
2022-08-05T09:44:50.418Z,1.95
2022-08-05T09:47:20.815Z,2.10
2022-08-05T09:50:01.663Z,2.17
2022-08-05T09:52:33.639Z,1.98
2022-08-05T09:55:06.469Z,2.38
2022-08-05T09:57:54.622Z,2.03
2022-08-05T10:00:26.824Z,2.05
2022-08-05T10:02:58.446Z,2.15
2022-08-05T10:05:28.323Z,2.10
2022-08-05T10:08:35.231Z,2.35
2022-08-05T10:10:50.247Z,2.10
2022-08-05T10:13:31.841Z,2.20
2022-08-05T10:16:33.970Z,2.10
2022-08-05T10:19:08.596Z,2.60
2022-08-05T10:21:40.414Z,2.58
2022-08-05T10:24:13.523Z,2.28
2022-08-05T10:26:51.474Z,2.50
2022-08-05T10:29:23.850Z,2.50
2022-08-05T10:32:52.338Z,2.80
2022-08-05T10:35:00.932Z,2.55
2022-08-05T10:37:41.348Z,2.38
2022-08-05T10:40:28.124Z,2.05
2022-08-05T10:43:04.566Z,2.13
2022-08-05T10:45:40.509Z,2.30
2022-08-05T10:48:52.974Z,2.17
2022-08-05T10:51:29.003Z,3.08
2022-08-05T10:54:01.716Z,2.75
2022-08-05T10:56:46.125Z,2.85
2022-08-05T11:00:02.995Z,2.70
2022-08-05T11:02:38.264Z,3.22
2022-08-05T11:05:06.940Z,3.00
2022-08-05T11:08:02.927Z,2.90
2022-08-05T11:10:27.635Z,3.47
2022-08-05T11:12:58.147Z,2.90
2022-08-05T11:16:01.119Z,3.60
2022-08-05T11:18:29.976Z,3.47
2022-08-05T11:21:02.022Z,2.80
2022-08-05T11:24:04.207Z,3.20
2022-08-05T11:26:28.732Z,3.15
2022-08-05T11:29:13.301Z,3.50
2022-08-05T11:31:56.417Z,3.53
2022-08-05T11:34:51.995Z,2.85
2022-08-05T11:38:37.081Z,3.50
2022-08-05T11:41:35.041Z,3.22
2022-08-05T11:44:04.368Z,3.10
2022-08-05T11:46:37.815Z,3.53
2022-08-05T11:49:25.622Z,3.72
2022-08-05T11:51:54.312Z,3.40
2022-08-05T11:54:33.383Z,3.10
2022-08-05T11:57:08.132Z,3.30
2022-08-05T11:59:52.499Z,3.40
2022-08-05T12:02:30.298Z,3.20
2022-08-05T12:05:01.221Z,3.38
2022-08-05T12:08:08.457Z,4.00
2022-08-05T12:10:43.037Z,3.50
2022-08-05T12:13:18.415Z,3.13
2022-08-05T12:15:56.418Z,3.65
2022-08-05T12:18:34.720Z,3.33
2022-08-05T12:21:15.195Z,3.38
2022-08-05T12:23:54.010Z,3.40
2022-08-05T12:26:23.903Z,3.42
2022-08-05T12:28:52.175Z,3.00
2022-08-05T12:31:23.424Z,3.35
2022-08-05T12:34:03.829Z,3.25
2022-08-05T12:36:32.360Z,3.20
2022-08-05T12:39:00.759Z,2.92
2022-08-05T12:41:34.337Z,2.65
2022-08-05T12:44:04.969Z,3.33
2022-08-05T12:46:41.124Z,3.25
2022-08-05T12:49:15.956Z,3.13
2022-08-05T12:52:10.415Z,2.97
2022-08-05T12:54:36.831Z,3.20
2022-08-05T12:57:09.642Z,3.60
2022-08-05T13:01:57.040Z,3.13
2022-08-05T13:02:37.330Z,3.13
2022-08-05T13:05:11.174Z,3.17
2022-08-05T13:08:01.140Z,3.13
2022-08-05T13:10:33.367Z,3.28
2022-08-05T13:13:02.746Z,3.60
2022-08-05T13:15:41.695Z,3.30
2022-08-05T13:18:20.001Z,3.28
2022-08-05T13:20:50.352Z,3.15
2022-08-05T13:23:55.675Z,3.28
2022-08-05T13:26:30.320Z,3.03
2022-08-05T13:28:59.331Z,3.50
2022-08-05T13:31:33.938Z,3.50
2022-08-05T13:34:22.239Z,3.58
2022-08-05T13:36:55.108Z,3.03
2022-08-05T13:40:14.313Z,3.05
2022-08-05T13:42:14.785Z,3.45
2022-08-05T13:44:45.453Z,2.95
2022-08-05T13:47:35.705Z,3.17
2022-08-05T13:50:04.761Z,3.15
2022-08-05T13:52:36.183Z,3.10
2022-08-05T13:55:07.603Z,2.90
2022-08-05T13:57:51.234Z,2.78
2022-08-05T14:00:27.293Z,3.17
2022-08-05T14:02:56.331Z,3.00
2022-08-05T14:05:48.407Z,2.85
2022-08-05T14:08:21.352Z,2.75
2022-08-05T14:10:59.681Z,3.05
2022-08-05T14:13:32.266Z,3.20
2022-08-05T14:16:05.143Z,2.70
2022-08-05T14:18:38.016Z,2.85
2022-08-05T14:22:07.011Z,2.67
2022-08-05T14:23:55.407Z,2.80
2022-08-05T14:26:36.892Z,2.50
2022-08-05T14:29:16.220Z,2.75
2022-08-05T14:32:03.641Z,2.50
2022-08-05T14:34:35.361Z,3.42
2022-08-05T14:37:04.243Z,3.33
2022-08-05T14:39:49.648Z,2.85
2022-08-05T14:42:22.261Z,2.80
2022-08-05T14:44:50.390Z,2.60
2022-08-05T14:47:58.401Z,3.10
2022-08-05T14:50:17.191Z,3.22
2022-08-05T14:52:57.824Z,2.90
2022-08-05T14:55:38.415Z,2.95
2022-08-05T14:58:10.941Z,2.75
2022-08-05T15:00:59.770Z,2.85
2022-08-05T15:03:33.123Z,3.03
2022-08-05T15:06:08.098Z,2.80
2022-08-05T15:09:01.072Z,5.10
2022-08-05T15:11:52.626Z,6.03
2022-08-05T15:14:35.083Z,6.57
2022-08-05T15:17:44.859Z,6.85
2022-08-05T15:19:58.028Z,5.85
2022-08-05T15:22:27.266Z,6.22
2022-08-05T15:24:56.560Z,7.30
2022-08-05T15:27:26.280Z,7.43
2022-08-05T15:30:00.307Z,8.77
2022-08-05T15:32:28.885Z,9.07
2022-08-05T15:34:57.327Z,11.13
2022-08-05T15:38:31.704Z,10.63
2022-08-05T15:41:00.922Z,10.77
2022-08-05T15:43:10.804Z,11.70
2022-08-05T15:45:45.744Z,11.85
2022-08-05T15:48:14.926Z,12.77
2022-08-05T15:50:43.868Z,10.85
2022-08-05T15:53:13.674Z,9.88
2022-08-05T15:56:03.043Z,10.10
2022-08-05T15:58:35.693Z,9.40
2022-08-05T16:01:17.303Z,8.60
2022-08-05T16:03:48.471Z,9.55
2022-08-05T16:06:20.238Z,10.35
2022-08-05T16:08:51.105Z,9.77
2022-08-05T16:11:42.984Z,12.30
2022-08-05T16:14:10.683Z,12.05
2022-08-05T16:16:46.113Z,11.80
2022-08-05T16:19:25.400Z,11.45
2022-08-05T16:22:03.051Z,12.48
2022-08-05T16:24:41.223Z,12.32
2022-08-05T16:27:18.879Z,12.77
2022-08-05T16:29:51.059Z,14.07
2022-08-05T16:32:28.433Z,13.50
2022-08-05T16:34:57.672Z,14.15
2022-08-05T16:38:16.346Z,14.45
2022-08-05T16:40:26.464Z,14.65
2022-08-05T16:42:56.956Z,14.50
2022-08-05T16:46:04.520Z,15.25
2022-08-05T16:48:25.978Z,16.00
2022-08-05T16:51:08.764Z,16.60
2022-08-05T16:54:05.650Z,16.00
2022-08-05T16:56:27.165Z,16.60
2022-08-05T16:58:55.213Z,15.82
2022-08-05T17:01:24.922Z,15.77
2022-08-05T17:03:53.018Z,15.75
2022-08-05T17:06:24.556Z,15.68
2022-08-05T17:08:54.341Z,15.60
2022-08-05T17:11:25.176Z,15.02
2022-08-05T17:14:00.601Z,14.32
2022-08-05T17:16:37.105Z,11.65
2022-08-05T17:19:07.870Z,11.68
2022-08-05T17:21:39.817Z,10.80
2022-08-05T17:24:19.872Z,11.30
2022-08-05T17:26:58.018Z,10.18
2022-08-05T17:29:33.152Z,10.98
2022-08-05T17:32:11.866Z,10.40
2022-08-05T17:34:47.813Z,10.68
2022-08-05T17:37:39.288Z,9.60
2022-08-05T17:40:10.237Z,9.52
2022-08-05T17:42:41.707Z,8.20
2022-08-05T17:45:20.103Z,8.95
2022-08-05T17:47:54.475Z,8.70
2022-08-05T17:50:28.375Z,8.27
2022-08-05T17:52:59.787Z,8.80
2022-08-05T17:55:37.257Z,8.52
2022-08-05T17:58:09.575Z,8.18
2022-08-05T18:00:44.433Z,8.27
2022-08-05T18:03:24.116Z,7.93
2022-08-05T18:06:04.659Z,7.57
2022-08-05T18:08:33.811Z,6.90
2022-08-05T18:11:03.262Z,7.28
2022-08-05T18:13:36.627Z,6.55
2022-08-05T18:16:13.674Z,6.18
2022-08-05T18:18:48.610Z,5.43
2022-08-05T18:21:21.207Z,6.13
2022-08-05T18:26:27.563Z,3.97
2022-08-05T18:28:57.708Z,4.13
2022-08-05T18:31:33.707Z,3.78
2022-08-05T18:34:05.864Z,2.47
2022-08-05T18:36:35.982Z,2.50
2022-08-05T18:39:06.486Z,2.33
2022-08-05T18:41:58.404Z,3.20
2022-08-05T18:44:35.264Z,2.40
2022-08-05T18:47:15.509Z,2.10
2022-08-05T18:50:02.653Z,2.08
2022-08-05T18:52:35.653Z,2.40
2022-08-05T18:55:06.275Z,2.00
2022-08-05T18:57:43.000Z,1.83
2022-08-05T19:00:20.018Z,1.60
2022-08-05T19:02:49.150Z,1.55
2022-08-05T19:06:05.575Z,2.15
2022-08-05T19:08:13.487Z,1.65
2022-08-05T19:10:43.454Z,1.40
2022-08-05T19:13:15.961Z,1.45
2022-08-05T19:15:59.927Z,1.63
2022-08-05T19:18:32.766Z,1.40
2022-08-05T19:21:02.092Z,4.50
2022-08-05T19:24:08.186Z,1.30
2022-08-05T19:26:22.329Z,1.25
2022-08-05T19:28:50.261Z,1.27
2022-08-05T19:31:21.419Z,1.58
2022-08-05T19:33:56.410Z,1.77
2022-08-05T19:36:26.924Z,1.23
2022-08-05T19:39:00.707Z,1.40
2022-08-05T19:41:34.682Z,1.45
2022-08-05T19:44:18.369Z,1.88
2022-08-05T19:46:46.792Z,1.30
2022-08-05T19:49:17.021Z,1.50
2022-08-05T19:52:06.063Z,2.03
2022-08-05T19:54:37.008Z,2.00
2022-08-05T19:57:08.593Z,1.50
2022-08-05T20:00:01.079Z,1.20
2022-08-05T20:02:30.237Z,1.27
2022-08-05T20:04:59.913Z,1.20
2022-08-05T20:07:46.772Z,1.45
2022-08-05T20:10:17.196Z,1.65
2022-08-05T20:12:48.156Z,1.40
2022-08-05T20:15:22.927Z,1.40
2022-08-05T20:18:10.430Z,1.40
2022-08-05T20:20:55.119Z,1.55
2022-08-05T20:23:39.506Z,1.30
2022-08-05T20:26:15.429Z,1.60
2022-08-05T20:28:45.224Z,1.95
2022-08-05T20:31:13.431Z,1.85
2022-08-05T20:33:44.542Z,2.00
2022-08-05T20:36:14.300Z,1.55
2022-08-05T20:38:54.590Z,2.22
2022-08-05T20:41:26.865Z,1.88
2022-08-05T20:44:17.184Z,1.80
2022-08-05T20:46:47.739Z,2.08
2022-08-05T20:49:24.107Z,1.85
2022-08-05T20:51:53.698Z,1.63
2022-08-05T20:54:25.206Z,1.88
2022-08-05T20:56:53.464Z,2.20
2022-08-05T20:59:26.666Z,2.05
2022-08-05T21:01:57.895Z,2.20
2022-08-05T21:04:27.006Z,2.00
2022-08-05T21:06:55.800Z,2.25
2022-08-05T21:09:25.251Z,2.08
2022-08-05T21:12:09.679Z,1.73
2022-08-05T21:14:40.837Z,1.90
2022-08-05T21:17:08.897Z,2.15
2022-08-05T21:19:47.444Z,2.25
2022-08-05T21:22:21.913Z,2.25
2022-08-05T21:24:54.278Z,2.25
2022-08-05T21:27:24.741Z,1.95
2022-08-05T21:29:54.165Z,2.20
2022-08-05T21:32:26.705Z,2.00
2022-08-05T21:35:08.649Z,2.10
2022-08-05T21:37:47.450Z,2.17
2022-08-05T21:40:23.413Z,1.75
2022-08-05T21:42:52.642Z,2.47
2022-08-05T21:45:24.782Z,2.10
2022-08-05T21:48:08.212Z,1.90
2022-08-05T21:50:37.279Z,2.28
2022-08-05T21:53:16.393Z,2.00
2022-08-05T21:56:04.794Z,2.53
2022-08-05T21:58:35.200Z,2.75
2022-08-05T22:01:05.522Z,2.45
2022-08-05T22:03:51.899Z,1.98
2022-08-05T22:06:35.621Z,2.42
2022-08-05T22:09:13.547Z,2.13
2022-08-05T22:11:47.038Z,2.50
2022-08-05T22:14:34.667Z,2.10
2022-08-05T22:17:06.553Z,1.98
2022-08-05T22:20:00.250Z,2.15
2022-08-05T22:22:27.064Z,2.33
2022-08-05T22:25:21.608Z,2.20
2022-08-05T22:28:08.112Z,2.17
2022-08-05T22:30:55.391Z,2.28
2022-08-05T22:33:55.362Z,2.05
2022-08-05T22:36:14.434Z,2.10
2022-08-05T22:38:43.700Z,2.40
2022-08-05T22:41:16.459Z,2.05
2022-08-05T22:44:05.924Z,2.38
2022-08-05T22:46:33.790Z,2.45
2022-08-05T22:49:12.457Z,2.40
2022-08-05T22:52:04.673Z,2.30
2022-08-05T22:54:34.925Z,2.20
2022-08-05T22:57:03.415Z,1.88
2022-08-05T22:59:48.595Z,1.80
2022-08-05T23:02:29.575Z,2.40
2022-08-05T23:05:02.065Z,2.33
2022-08-05T23:07:43.837Z,2.25
2022-08-05T23:10:13.766Z,2.13
2022-08-05T23:12:43.168Z,2.30
2022-08-05T23:15:13.456Z,1.83
2022-08-05T23:18:00.609Z,2.13
2022-08-05T23:20:29.478Z,2.22
2022-08-05T23:22:58.511Z,2.53
2022-08-05T23:25:51.688Z,2.03
2022-08-05T23:28:15.853Z,2.22
2022-08-05T23:30:53.694Z,2.33
2022-08-05T23:34:02.857Z,2.13
2022-08-05T23:36:13.399Z,2.75
2022-08-05T23:38:42.759Z,2.20
2022-08-05T23:41:11.074Z,2.47
2022-08-05T23:44:06.448Z,3.20
2022-08-05T23:46:28.688Z,2.90
2022-08-05T23:49:00.346Z,3.05
2022-08-05T23:51:53.964Z,3.33
2022-08-05T23:54:25.685Z,3.15
2022-08-05T23:56:55.380Z,3.30
2022-08-05T23:59:27.652Z,3.47
